Time;durP1;ratioP1;P1;durP2;ratioP2;P2;SDS_P1;SDS_P2;PMS_P1;PMS_P2;Temp;Humidity;BMP_temperature;BMP_pressure;BME280_temperature;BME280_humidity;BME280_pressure;Samples;Min_cycle;Max_cycle;Signal;HPM_P1;HPM_P2
2023/09/29 00:00:48;;;;;;;0.10;0.10;;;16.30;99.90;;;;;;5025992;28;20048;-63
2023/09/29 00:03:15;;;;;;;3.80;0.60;;;16.30;99.90;;;;;;5025036;28;20408;-63
2023/09/29 00:05:42;;;;;;;0.00;0.00;;;16.30;99.90;;;;;;5021292;28;20444;-63
2023/09/29 00:08:08;;;;;;;0.03;0.03;;;16.30;99.90;;;;;;5026002;28;20393;-63
2023/09/29 00:10:34;;;;;;;0.00;0.00;;;16.30;99.90;;;;;;5015551;28;20060;-63
2023/09/29 00:13:00;;;;;;;0.15;0.15;;;16.30;99.90;;;;;;5022757;28;20033;-63
2023/09/29 00:15:26;;;;;;;0.00;0.00;;;16.30;99.90;;;;;;5029015;28;20043;-63
2023/09/29 00:17:51;;;;;;;0.13;0.13;;;16.30;99.90;;;;;;5028349;28;20396;-63
2023/09/29 00:20:23;;;;;;;0.15;0.15;;;16.30;99.90;;;;;;5020944;28;20037;-63
2023/09/29 00:22:50;;;;;;;0.10;0.10;;;16.20;99.90;;;;;;5025017;28;20148;-63
2023/09/29 00:25:16;;;;;;;0.20;0.20;;;16.30;99.90;;;;;;5025304;28;20037;-63
2023/09/29 00:27:41;;;;;;;0.25;0.25;;;16.30;99.90;;;;;;5022725;28;20038;-63
2023/09/29 00:30:09;;;;;;;0.00;0.00;;;16.30;99.90;;;;;;5024470;28;20060;-63
2023/09/29 00:32:35;;;;;;;0.10;0.10;;;16.20;99.90;;;;;;5025882;28;20072;-63
2023/09/29 00:35:01;;;;;;;1.45;0.45;;;16.30;99.90;;;;;;5026190;28;20365;-63
2023/09/29 00:37:26;;;;;;;0.00;0.00;;;16.30;99.90;;;;;;5017456;28;20041;-63
2023/09/29 00:39:52;;;;;;;0.00;0.00;;;16.30;99.90;;;;;;5021711;28;20053;-63
2023/09/29 00:42:18;;;;;;;1.00;0.95;;;16.30;99.90;;;;;;5020556;28;20056;-63
2023/09/29 00:44:45;;;;;;;0.10;0.05;;;16.30;99.90;;;;;;5017648;28;20045;-64
2023/09/29 00:47:11;;;;;;;2.45;1.00;;;16.30;99.90;;;;;;5024138;28;20049;-64
2023/09/29 00:49:37;;;;;;;0.10;0.10;;;16.30;99.90;;;;;;5016322;28;20112;-64
2023/09/29 00:52:04;;;;;;;0.10;0.10;;;16.30;99.90;;;;;;5024277;28;20116;-64
2023/09/29 00:54:31;;;;;;;1.10;0.73;;;16.30;99.90;;;;;;5018871;28;20049;-64
2023/09/29 00:57:00;;;;;;;0.10;0.10;;;16.30;99.90;;;;;;5015463;28;20593;-64
2023/09/29 00:59:27;;;;;;;0.08;0.08;;;16.30;99.90;;;;;;5022403;28;20061;-64
2023/09/29 01:01:53;;;;;;;0.20;0.20;;;16.20;99.90;;;;;;5024551;28;20726;-63
2023/09/29 01:04:18;;;;;;;0.00;0.00;;;16.30;99.90;;;;;;5024868;28;20052;-64
2023/09/29 01:06:45;;;;;;;0.20;0.20;;;16.30;99.90;;;;;;5016486;28;20047;-63
2023/09/29 01:09:12;;;;;;;0.00;0.00;;;16.30;99.90;;;;;;5025911;28;20396;-63
2023/09/29 01:11:44;;;;;;;0.00;0.00;;;16.30;99.90;;;;;;5021950;28;20120;-64
2023/09/29 01:14:13;;;;;;;0.38;0.20;;;16.20;99.90;;;;;;5015552;28;20504;-64
2023/09/29 01:16:42;;;;;;;0.00;0.00;;;16.20;99.90;;;;;;5016659;28;20030;-64
2023/09/29 01:19:13;;;;;;;0.17;0.13;;;16.20;99.90;;;;;;5024100;28;20045;-64
2023/09/29 01:21:44;;;;;;;0.35;0.35;;;16.20;99.90;;;;;;5022549;28;20038;-64
2023/09/29 01:24:10;;;;;;;0.08;0.08;;;16.20;99.90;;;;;;5011234;28;20117;-64
2023/09/29 01:26:36;;;;;;;0.10;0.05;;;16.20;99.90;;;;;;5024193;28;20112;-64
2023/09/29 01:29:03;;;;;;;0.25;0.25;;;16.20;99.90;;;;;;5018854;28;20488;-64
2023/09/29 01:31:29;;;;;;;0.00;0.00;;;16.10;99.90;;;;;;5029951;28;20044;-64
2023/09/29 01:33:54;;;;;;;0.00;0.00;;;16.20;99.90;;;;;;5028568;28;20041;-64
2023/09/29 01:36:20;;;;;;;0.25;0.25;;;16.20;99.90;;;;;;5032117;28;20470;-64
2023/09/29 01:38:46;;;;;;;0.00;0.00;;;16.20;99.90;;;;;;5022340;28;20172;-64
2023/09/29 01:41:13;;;;;;;0.10;0.10;;;16.20;99.90;;;;;;5026888;28;20044;-64
2023/09/29 01:43:39;;;;;;;0.00;0.00;;;16.20;99.90;;;;;;5029386;28;20044;-64
2023/09/29 01:46:07;;;;;;;0.68;0.68;;;16.20;99.90;;;;;;5029320;28;20038;-64
2023/09/29 01:48:33;;;;;;;0.10;0.10;;;16.20;99.90;;;;;;5021592;28;20071;-64
2023/09/29 01:51:02;;;;;;;0.10;0.10;;;16.20;99.90;;;;;;5026785;28;20045;-64
2023/09/29 01:53:30;;;;;;;0.20;0.17;;;16.20;99.90;;;;;;5015974;28;20042;-64
2023/09/29 01:55:56;;;;;;;0.00;0.00;;;16.20;99.90;;;;;;5031657;28;20134;-64
2023/09/29 01:58:22;;;;;;;0.08;0.08;;;16.20;99.90;;;;;;5027597;28;20156;-63
2023/09/29 02:00:49;;;;;;;6.05;1.73;;;16.20;99.90;;;;;;5028072;28;20404;-64
2023/09/29 02:03:15;;;;;;;0.00;0.00;;;16.20;99.90;;;;;;5022566;28;20079;-64
2023/09/29 02:05:41;;;;;;;0.40;0.40;;;16.30;99.90;;;;;;5026519;28;20705;-64
2023/09/29 02:08:09;;;;;;;0.45;0.45;;;16.30;99.90;;;;;;5021211;28;20046;-64
2023/09/29 02:10:36;;;;;;;0.00;0.00;;;16.20;99.90;;;;;;5023139;28;20041;-64
2023/09/29 02:13:07;;;;;;;0.55;0.47;;;16.30;99.90;;;;;;5025435;28;20046;-64
2023/09/29 02:15:36;;;;;;;8.30;0.45;;;16.30;99.90;;;;;;5028467;28;20052;-64
2023/09/29 02:18:05;;;;;;;0.00;0.00;;;16.30;99.90;;;;;;5025118;28;20041;-64
2023/09/29 02:20:31;;;;;;;0.20;0.20;;;16.30;99.90;;;;;;5019731;28;20049;-64
2023/09/29 02:23:02;;;;;;;0.45;0.45;;;16.30;99.90;;;;;;5030834;28;20045;-64
2023/09/29 02:25:29;;;;;;;0.00;0.00;;;16.30;99.90;;;;;;5030091;28;20148;-64
2023/09/29 02:27:56;;;;;;;0.00;0.00;;;16.30;99.90;;;;;;5020711;28;20046;-64
2023/09/29 02:30:24;;;;;;;0.10;0.10;;;16.30;99.90;;;;;;5030780;28;20122;-63
2023/09/29 02:32:52;;;;;;;0.00;0.00;;;16.30;99.90;;;;;;5028185;28;20045;-64
2023/09/29 02:35:17;;;;;;;2.97;0.40;;;16.30;99.90;;;;;;5016585;28;20120;-64
2023/09/29 02:37:43;;;;;;;0.10;0.10;;;16.30;99.90;;;;;;5029429;28;20133;-64
2023/09/29 02:40:14;;;;;;;1.90;1.77;;;16.30;99.90;;;;;;5029369;28;20064;-64
2023/09/29 02:42:41;;;;;;;0.43;0.43;;;16.30;99.90;;;;;;5017399;28;20709;-64
2023/09/29 02:45:07;;;;;;;0.05;0.05;;;16.30;99.90;;;;;;5030234;28;20046;-64
2023/09/29 02:47:34;;;;;;;4.85;0.95;;;16.40;99.90;;;;;;5029952;28;20056;-64
2023/09/29 02:50:00;;;;;;;0.30;0.30;;;16.40;99.90;;;;;;5027277;28;20094;-64
2023/09/29 02:52:27;;;;;;;0.00;0.00;;;16.40;99.90;;;;;;5025122;28;20128;-64
2023/09/29 02:54:56;;;;;;;0.08;0.08;;;16.30;99.90;;;;;;5025639;28;20052;-64
2023/09/29 02:57:22;;;;;;;0.00;0.00;;;16.40;99.90;;;;;;5028175;28;20056;-64
2023/09/29 02:59:48;;;;;;;0.32;0.32;;;16.40;99.90;;;;;;5017722;28;20095;-64
2023/09/29 03:02:14;;;;;;;0.10;0.10;;;16.40;99.90;;;;;;5021797;28;20033;-64
2023/09/29 03:04:40;;;;;;;0.00;0.00;;;16.40;99.90;;;;;;5030461;28;20042;-64
2023/09/29 03:07:06;;;;;;;0.00;0.00;;;16.40;99.90;;;;;;5019517;28;20068;-64
2023/09/29 03:09:33;;;;;;;0.00;0.00;;;16.40;99.90;;;;;;5023590;28;20496;-64
2023/09/29 03:12:03;;;;;;;0.10;0.10;;;16.40;99.90;;;;;;5025121;28;20488;-64
2023/09/29 03:14:29;;;;;;;0.10;0.10;;;16.40;99.90;;;;;;5030670;28;20384;-64
2023/09/29 03:16:57;;;;;;;0.10;0.10;;;16.40;99.90;;;;;;5026929;28;20046;-64
2023/09/29 03:19:22;;;;;;;0.00;0.00;;;16.40;99.90;;;;;;5026372;28;20049;-64
2023/09/29 03:21:51;;;;;;;0.13;0.13;;;16.40;99.90;;;;;;5022734;28;20037;-64
2023/09/29 03:24:16;;;;;;;0.10;0.10;;;16.40;99.90;;;;;;5023317;28;20038;-64
2023/09/29 03:26:44;;;;;;;2.45;1.45;;;16.50;99.90;;;;;;5020459;28;20485;-64
2023/09/29 03:29:10;;;;;;;0.00;0.00;;;16.50;99.90;;;;;;5020701;28;20400;-64
2023/09/29 03:31:36;;;;;;;0.35;0.35;;;16.50;99.90;;;;;;5018697;28;20045;-64
2023/09/29 03:34:02;;;;;;;0.00;0.00;;;16.50;99.90;;;;;;5026135;28;20049;-64
2023/09/29 03:36:29;;;;;;;0.05;0.05;;;16.50;99.90;;;;;;5028554;28;20037;-63
2023/09/29 03:38:54;;;;;;;0.22;0.17;;;16.60;99.90;;;;;;5020919;28;20077;-64
2023/09/29 03:41:23;;;;;;;0.00;0.00;;;16.60;99.90;;;;;;5024926;28;20586;-64
2023/09/29 03:43:52;;;;;;;0.00;0.00;;;16.60;99.90;;;;;;5023645;28;20045;-64
2023/09/29 03:46:21;;;;;;;0.00;0.00;;;16.60;99.90;;;;;;5020898;28;20489;-64
2023/09/29 03:48:47;;;;;;;0.15;0.15;;;16.60;99.90;;;;;;5015775;28;20037;-64
2023/09/29 03:51:23;;;;;;;0.08;0.08;;;16.60;99.90;;;;;;5021305;28;20164;-64
2023/09/29 03:53:57;;;;;;;0.40;0.40;;;16.70;99.90;;;;;;5019311;28;20084;-64
2023/09/29 03:56:23;;;;;;;0.50;0.50;;;16.70;99.90;;;;;;5026922;28;20670;-63
2023/09/29 03:58:50;;;;;;;0.10;0.10;;;16.70;99.90;;;;;;5022059;28;20108;-64
2023/09/29 04:01:16;;;;;;;0.00;0.00;;;16.60;99.90;;;;;;5029077;28;20079;-64
2023/09/29 04:03:42;;;;;;;0.70;0.30;;;16.70;99.90;;;;;;5024752;28;20358;-64
2023/09/29 04:06:08;;;;;;;0.05;0.05;;;16.70;99.90;;;;;;5017051;28;20096;-64
2023/09/29 04:08:34;;;;;;;0.00;0.00;;;16.70;99.90;;;;;;5021395;28;20107;-64
2023/09/29 04:10:59;;;;;;;0.55;0.30;;;16.70;99.90;;;;;;5021274;28;20045;-64
2023/09/29 04:13:25;;;;;;;0.03;0.03;;;16.70;99.90;;;;;;5025140;28;20084;-64
2023/09/29 04:15:51;;;;;;;1.10;0.88;;;16.70;99.90;;;;;;5028194;28;20064;-64
2023/09/29 04:18:17;;;;;;;1.00;0.90;;;16.70;99.90;;;;;;5025094;28;20048;-64
2023/09/29 04:20:42;;;;;;;0.05;0.05;;;16.70;99.90;;;;;;5016120;28;20077;-64
2023/09/29 04:23:08;;;;;;;0.20;0.20;;;16.70;99.90;;;;;;5018066;28;20038;-64
2023/09/29 04:25:33;;;;;;;0.55;0.55;;;16.70;99.90;;;;;;5027190;28;20044;-64
2023/09/29 04:27:59;;;;;;;0.32;0.32;;;16.70;99.90;;;;;;5027790;28;20131;-64
2023/09/29 04:30:25;;;;;;;0.98;0.60;;;16.80;99.90;;;;;;5023565;28;20038;-64
2023/09/29 04:32:52;;;;;;;0.03;0.03;;;16.70;99.90;;;;;;5025059;28;20155;-64
2023/09/29 04:35:18;;;;;;;1.35;0.88;;;16.80;99.90;;;;;;5025690;28;20041;-64
2023/09/29 04:37:45;;;;;;;0.00;0.00;;;16.70;99.90;;;;;;5028397;28;20144;-64
2023/09/29 04:40:11;;;;;;;0.08;0.08;;;16.80;99.90;;;;;;5019306;28;20548;-64
2023/09/29 04:42:38;;;;;;;0.00;0.00;;;16.80;99.90;;;;;;5018822;28;20049;-64
2023/09/29 04:45:04;;;;;;;0.10;0.10;;;16.80;99.90;;;;;;5026394;28;20038;-64
2023/09/29 04:47:30;;;;;;;0.10;0.10;;;16.80;99.90;;;;;;5024914;28;20122;-64
2023/09/29 04:49:56;;;;;;;0.00;0.00;;;16.70;99.90;;;;;;5024909;28;20083;-64
2023/09/29 04:52:21;;;;;;;0.20;0.20;;;16.70;99.90;;;;;;5026383;28;20037;-64
2023/09/29 04:54:48;;;;;;;0.10;0.10;;;16.70;99.90;;;;;;5015913;28;20128;-64
2023/09/29 04:57:14;;;;;;;0.00;0.00;;;16.70;99.90;;;;;;5023616;28;20064;-64
2023/09/29 04:59:40;;;;;;;0.35;0.35;;;16.60;99.90;;;;;;5022594;28;20103;-65
2023/09/29 05:02:05;;;;;;;0.03;0.03;;;16.60;99.90;;;;;;5021783;28;20045;-64
2023/09/29 05:04:32;;;;;;;8.07;0.68;;;16.60;99.90;;;;;;5027428;28;20368;-65
2023/09/29 05:06:57;;;;;;;0.00;0.00;;;16.60;99.90;;;;;;5026928;28;20049;-65
2023/09/29 05:09:23;;;;;;;0.00;0.00;;;16.60;99.90;;;;;;5016785;28;20530;-64
2023/09/29 05:11:49;;;;;;;0.88;0.57;;;16.60;99.90;;;;;;5024636;28;20119;-64
2023/09/29 05:14:14;;;;;;;0.00;0.00;;;16.60;99.90;;;;;;5027464;28;20044;-64
2023/09/29 05:16:40;;;;;;;0.00;0.00;;;16.60;99.90;;;;;;5021160;28;20038;-64
2023/09/29 05:19:06;;;;;;;0.00;0.00;;;16.60;99.90;;;;;;5022068;28;20037;-64
2023/09/29 05:21:32;;;;;;;0.00;0.00;;;16.50;99.90;;;;;;5025681;28;20342;-64
2023/09/29 05:23:58;;;;;;;0.03;0.03;;;16.50;99.90;;;;;;5020725;28;20041;-64
2023/09/29 05:26:23;;;;;;;0.00;0.00;;;16.50;99.90;;;;;;5019012;28;20228;-64
2023/09/29 05:28:53;;;;;;;0.00;0.00;;;16.50;99.90;;;;;;5020571;28;20603;-64
2023/09/29 05:31:19;;;;;;;0.65;0.65;;;16.50;99.90;;;;;;5024242;28;20100;-64
2023/09/29 05:33:44;;;;;;;0.10;0.10;;;16.50;99.90;;;;;;5015340;28;20042;-65
2023/09/29 05:36:10;;;;;;;0.00;0.00;;;16.50;99.90;;;;;;5021288;28;20116;-64
2023/09/29 05:38:36;;;;;;;0.00;0.00;;;16.60;99.90;;;;;;5026959;28;20132;-64
2023/09/29 05:41:01;;;;;;;0.03;0.03;;;16.50;99.90;;;;;;5020206;28;20025;-64
2023/09/29 05:43:27;;;;;;;22.02;1.65;;;16.60;99.90;;;;;;5026332;28;20041;-64
2023/09/29 05:45:53;;;;;;;0.00;0.00;;;16.50;99.90;;;;;;5026060;28;20044;-64
2023/09/29 05:48:18;;;;;;;0.00;0.00;;;16.60;99.90;;;;;;5018730;28;20044;-64
2023/09/29 05:50:44;;;;;;;0.22;0.22;;;16.50;99.90;;;;;;5021821;28;20069;-65
2023/09/29 05:53:11;;;;;;;4.38;1.10;;;16.60;99.90;;;;;;5019408;28;20132;-64
2023/09/29 05:55:37;;;;;;;0.00;0.00;;;16.50;99.90;;;;;;5024256;28;20096;-65
2023/09/29 05:58:03;;;;;;;0.00;0.00;;;16.50;99.90;;;;;;5020124;28;20049;-64
2023/09/29 06:00:28;;;;;;;0.00;0.00;;;16.50;99.90;;;;;;5022146;28;20048;-64
2023/09/29 06:02:54;;;;;;;0.20;0.20;;;16.50;99.90;;;;;;5027594;28;20487;-64
2023/09/29 06:05:20;;;;;;;0.15;0.15;;;16.50;99.90;;;;;;5020029;28;20503;-64
2023/09/29 06:07:45;;;;;;;0.30;0.30;;;16.50;99.90;;;;;;5016497;28;20428;-64
2023/09/29 06:10:11;;;;;;;0.00;0.00;;;16.50;99.90;;;;;;5025845;28;20049;-64
2023/09/29 06:12:37;;;;;;;0.20;0.20;;;16.50;99.90;;;;;;5020687;28;20138;-65
2023/09/29 06:15:04;;;;;;;0.03;0.03;;;16.50;99.90;;;;;;5022736;28;20050;-65
2023/09/29 06:17:30;;;;;;;0.00;0.00;;;16.60;99.90;;;;;;5028693;28;20072;-65
2023/09/29 06:19:56;;;;;;;0.15;0.15;;;16.50;99.90;;;;;;5030983;28;20042;-65
2023/09/29 06:22:22;;;;;;;0.00;0.00;;;16.60;99.90;;;;;;5021526;28;20541;-65
2023/09/29 06:24:47;;;;;;;3.42;1.98;;;16.60;99.90;;;;;;5027311;28;20076;-65
2023/09/29 06:27:13;;;;;;;0.10;0.10;;;16.60;99.90;;;;;;5024245;28;20045;-65
2023/09/29 06:29:40;;;;;;;1.25;1.02;;;16.60;99.90;;;;;;5029845;28;20088;-65
2023/09/29 06:32:09;;;;;;;0.00;0.00;;;16.60;99.90;;;;;;5021576;28;20038;-65
2023/09/29 06:34:35;;;;;;;0.00;0.00;;;16.60;99.90;;;;;;5025063;28;20053;-65
2023/09/29 06:37:01;;;;;;;0.00;0.00;;;16.60;99.90;;;;;;5029315;28;20041;-65
2023/09/29 06:39:27;;;;;;;0.57;0.47;;;16.70;99.90;;;;;;5020192;28;20128;-64
2023/09/29 06:41:52;;;;;;;0.17;0.17;;;16.70;99.90;;;;;;5020649;28;20072;-64
2023/09/29 06:44:18;;;;;;;0.00;0.00;;;16.70;99.90;;;;;;5023671;28;20482;-64
2023/09/29 06:46:44;;;;;;;2.83;0.82;;;16.70;99.90;;;;;;5028391;28;20049;-64
2023/09/29 06:49:10;;;;;;;0.00;0.00;;;16.70;99.90;;;;;;5028615;28;20049;-64
2023/09/29 06:51:36;;;;;;;0.10;0.10;;;16.80;99.90;;;;;;5024239;28;20177;-65
2023/09/29 06:54:02;;;;;;;0.40;0.40;;;16.80;99.90;;;;;;5025920;28;20128;-64
2023/09/29 06:56:28;;;;;;;0.05;0.05;;;16.80;99.90;;;;;;5030898;28;20053;-64
2023/09/29 06:58:57;;;;;;;0.10;0.10;;;16.90;99.90;;;;;;5030271;28;20153;-64
2023/09/29 07:01:24;;;;;;;0.00;0.00;;;16.90;99.90;;;;;;5022330;28;20095;-64
2023/09/29 07:03:50;;;;;;;0.00;0.00;;;16.90;99.90;;;;;;5029742;28;20416;-64
2023/09/29 07:06:16;;;;;;;0.25;0.25;;;17.00;99.90;;;;;;5018726;28;20045;-64
2023/09/29 07:08:41;;;;;;;0.00;0.00;;;17.00;99.90;;;;;;5024844;28;20060;-64
2023/09/29 07:11:07;;;;;;;0.00;0.00;;;17.00;99.90;;;;;;5029552;28;20218;-64
2023/09/29 07:13:33;;;;;;;0.00;0.00;;;17.00;99.90;;;;;;5028626;28;20046;-64
2023/09/29 07:15:59;;;;;;;0.00;0.00;;;17.10;99.90;;;;;;5024239;28;20037;-64
2023/09/29 07:18:25;;;;;;;0.10;0.10;;;17.20;99.90;;;;;;5021355;28;20556;-64
2023/09/29 07:20:52;;;;;;;0.20;0.20;;;17.20;99.90;;;;;;5025071;28;20046;-64
2023/09/29 07:23:21;;;;;;;0.10;0.10;;;17.30;99.90;;;;;;5022441;28;20037;-64
2023/09/29 07:25:47;;;;;;;0.00;0.00;;;17.30;99.90;;;;;;5029282;28;20045;-64
2023/09/29 07:28:14;;;;;;;0.40;0.40;;;17.40;99.90;;;;;;5029714;28;20041;-64
2023/09/29 07:30:47;;;;;;;1.10;0.60;;;17.40;99.90;;;;;;5023711;28;20649;-64
2023/09/29 07:33:13;;;;;;;0.00;0.00;;;17.50;99.90;;;;;;5027715;28;20124;-64
2023/09/29 07:35:39;;;;;;;0.00;0.00;;;17.50;99.90;;;;;;5029491;28;20116;-64
2023/09/29 07:38:05;;;;;;;0.63;0.52;;;17.50;99.90;;;;;;5028103;28;20038;-64
2023/09/29 07:40:32;;;;;;;0.00;0.00;;;17.60;99.90;;;;;;5016099;28;20042;-64
2023/09/29 07:42:58;;;;;;;0.10;0.10;;;17.60;99.90;;;;;;5020449;28;20095;-64
2023/09/29 07:45:24;;;;;;;0.00;0.00;;;17.60;99.90;;;;;;5027260;28;20042;-64
2023/09/29 07:47:50;;;;;;;0.13;0.08;;;17.70;99.90;;;;;;5028463;28;20056;-64
2023/09/29 07:50:17;;;;;;;0.20;0.20;;;17.70;99.90;;;;;;5021482;28;20037;-64
2023/09/29 07:52:42;;;;;;;2.03;0.20;;;17.80;99.90;;;;;;5025405;28;20685;-64
2023/09/29 07:55:09;;;;;;;0.38;0.38;;;17.90;99.90;;;;;;5028761;28;20049;-63
2023/09/29 07:57:35;;;;;;;1.55;0.40;;;18.00;99.90;;;;;;5024828;28;20041;-63
2023/09/29 08:00:01;;;;;;;0.10;0.10;;;18.00;99.90;;;;;;5028544;28;20047;-63
2023/09/29 08:02:27;;;;;;;0.52;0.52;;;18.10;99.90;;;;;;5021693;28;20048;-63
2023/09/29 08:04:53;;;;;;;0.00;0.00;;;18.10;99.90;;;;;;5019632;28;20045;-63
2023/09/29 08:07:19;;;;;;;1.80;0.52;;;18.10;99.90;;;;;;5026173;28;20037;-63
2023/09/29 08:09:48;;;;;;;0.32;0.32;;;18.10;99.90;;;;;;5020285;28;20046;-64
2023/09/29 08:12:14;;;;;;;0.00;0.00;;;18.10;99.90;;;;;;5025450;28;20044;-63
2023/09/29 08:14:39;;;;;;;0.38;0.35;;;18.10;99.90;;;;;;5024025;28;20037;-63
2023/09/29 08:17:05;;;;;;;0.00;0.00;;;18.10;99.90;;;;;;5021855;28;20470;-64
2023/09/29 08:19:30;;;;;;;0.00;0.00;;;18.10;99.90;;;;;;5021957;28;20356;-64
2023/09/29 08:21:56;;;;;;;0.00;0.00;;;18.10;99.90;;;;;;5021334;28;20034;-64
2023/09/29 08:24:22;;;;;;;0.13;0.13;;;18.20;99.90;;;;;;5022456;28;20048;-64
2023/09/29 08:26:47;;;;;;;4.22;2.28;;;18.20;99.90;;;;;;5027224;28;20078;-64
2023/09/29 08:29:16;;;;;;;0.00;0.00;;;18.20;99.90;;;;;;5030213;28;20060;-63
2023/09/29 08:31:42;;;;;;;2.83;0.95;;;18.30;99.90;;;;;;5020503;28;20053;-64
2023/09/29 08:34:08;;;;;;;0.15;0.15;;;18.40;99.90;;;;;;5021932;28;20053;-64
2023/09/29 08:36:33;;;;;;;0.10;0.10;;;18.40;99.90;;;;;;5027260;28;20049;-63
2023/09/29 08:38:59;;;;;;;0.00;0.00;;;18.50;99.90;;;;;;5022580;28;20054;-63
2023/09/29 08:41:29;;;;;;;5.57;0.40;;;18.60;99.90;;;;;;5027029;28;20122;-64
2023/09/29 08:43:55;;;;;;;0.40;0.20;;;18.80;99.90;;;;;;5027410;28;20132;-64
2023/09/29 08:46:21;;;;;;;0.52;0.52;;;18.80;99.90;;;;;;5016134;28;20045;-64
2023/09/29 08:48:48;;;;;;;11.60;2.00;;;18.90;99.90;;;;;;5024793;28;20037;-63
2023/09/29 08:51:15;;;;;;;1.38;0.95;;;18.90;99.90;;;;;;5020162;28;20091;-64
2023/09/29 08:53:42;;;;;;;0.10;0.10;;;18.90;99.90;;;;;;5020410;28;20045;-64
2023/09/29 08:56:12;;;;;;;0.00;0.00;;;18.90;99.90;;;;;;5018678;28;20413;-63
2023/09/29 08:58:38;;;;;;;0.00;0.00;;;18.90;99.90;;;;;;5023500;28;20041;-63
2023/09/29 09:01:05;;;;;;;0.00;0.00;;;19.00;99.90;;;;;;5026231;28;20384;-64
2023/09/29 09:03:31;;;;;;;10.95;0.73;;;19.10;99.90;;;;;;5016108;28;20057;-64
2023/09/29 09:05:57;;;;;;;0.10;0.10;;;19.10;99.90;;;;;;5030719;28;20045;-64
2023/09/29 09:08:24;;;;;;;0.28;0.28;;;19.10;99.90;;;;;;5013837;28;20049;-63
2023/09/29 09:11:00;;;;;;;0.28;0.28;;;19.10;99.90;;;;;;5023524;28;20053;-63
2023/09/29 09:13:26;;;;;;;0.22;0.22;;;19.30;99.90;;;;;;5021257;28;20052;-64
2023/09/29 09:15:59;;;;;;;0.65;0.35;;;19.40;99.90;;;;;;5025447;28;20053;-64
2023/09/29 09:18:27;;;;;;;0.00;0.00;;;19.70;99.90;;;;;;5015754;28;20045;-63
2023/09/29 09:20:54;;;;;;;0.00;0.00;;;19.80;99.90;;;;;;5034894;28;20156;-63
2023/09/29 09:23:20;;;;;;;0.08;0.08;;;19.80;99.90;;;;;;5026084;28;20469;-63
2023/09/29 09:25:46;;;;;;;0.00;0.00;;;19.80;99.90;;;;;;5021583;28;20515;-63
2023/09/29 09:28:18;;;;;;;0.88;0.30;;;20.00;99.90;;;;;;5021811;28;20088;-64
2023/09/29 09:30:46;;;;;;;0.05;0.05;;;19.90;99.90;;;;;;5025699;28;20050;-64
2023/09/29 09:33:21;;;;;;;0.45;0.45;;;19.90;99.90;;;;;;5023324;28;20498;-64
2023/09/29 09:35:50;;;;;;;2.30;1.30;;;19.90;99.90;;;;;;5018765;28;20126;-64
2023/09/29 09:38:16;;;;;;;0.15;0.15;;;19.80;99.90;;;;;;5027463;28;20029;-64
2023/09/29 09:40:43;;;;;;;0.00;0.00;;;19.70;99.90;;;;;;5024124;28;20045;-64
2023/09/29 09:43:10;;;;;;;0.63;0.57;;;19.60;99.90;;;;;;5016383;28;20045;-64
2023/09/29 09:45:44;;;;;;;0.15;0.15;;;19.60;99.90;;;;;;5025807;28;20053;-64
2023/09/29 09:48:15;;;;;;;0.00;0.00;;;19.50;99.90;;;;;;5016361;28;20393;-64
2023/09/29 09:50:43;;;;;;;0.57;0.57;;;19.40;99.90;;;;;;5029735;28;20132;-64
2023/09/29 09:53:12;;;;;;;0.93;0.88;;;19.40;99.90;;;;;;5021628;28;20060;-64
2023/09/29 09:55:52;;;;;;;0.08;0.08;;;19.30;99.90;;;;;;5022129;28;20053;-64
2023/09/29 09:58:22;;;;;;;0.10;0.10;;;19.30;99.90;;;;;;5019318;28;20060;-64
2023/09/29 10:00:55;;;;;;;0.95;0.35;;;19.30;99.90;;;;;;5030807;28;20056;-64
2023/09/29 10:03:21;;;;;;;2.90;0.98;;;19.30;99.90;;;;;;5019411;28;20073;-64
2023/09/29 10:05:51;;;;;;;0.17;0.17;;;19.30;99.90;;;;;;5024000;28;20080;-64
2023/09/29 10:08:30;;;;;;;0.43;0.38;;;19.40;99.90;;;;;;5016567;28;20057;-64
2023/09/29 10:11:10;;;;;;;0.08;0.05;;;19.30;99.90;;;;;;5028742;28;20091;-64
2023/09/29 10:13:37;;;;;;;0.10;0.10;;;19.40;99.90;;;;;;5020387;28;20488;-64
2023/09/29 10:16:05;;;;;;;0.80;0.77;;;19.40;99.90;;;;;;5022989;28;20072;-63
2023/09/29 10:18:33;;;;;;;0.75;0.32;;;19.50;99.90;;;;;;5025572;28;20547;-63
2023/09/29 10:21:09;;;;;;;1.85;0.08;;;19.60;99.90;;;;;;5030088;28;20496;-64
2023/09/29 10:23:45;;;;;;;0.00;0.00;;;19.70;99.90;;;;;;5027627;28;20068;-64
2023/09/29 10:26:11;;;;;;;0.85;0.85;;;19.80;99.90;;;;;;5023438;28;20057;-64
2023/09/29 10:28:40;;;;;;;0.10;0.10;;;19.90;99.90;;;;;;5018962;28;20507;-64
2023/09/29 10:31:08;;;;;;;3.97;1.25;;;19.90;99.90;;;;;;5021159;28;20037;-65
2023/09/29 10:33:53;;;;;;;0.13;0.10;;;19.90;99.90;;;;;;5022271;28;20392;-64
2023/09/29 10:36:29;;;;;;;0.10;0.10;;;19.80;99.90;;;;;;5018765;28;20395;-64
2023/09/29 10:38:59;;;;;;;0.57;0.57;;;19.80;99.90;;;;;;5024868;28;20064;-64
2023/09/29 10:41:25;;;;;;;0.30;0.30;;;19.80;99.90;;;;;;5028923;28;20052;-64
2023/09/29 10:43:57;;;;;;;0.30;0.30;;;19.80;99.90;;;;;;5031549;28;20075;-63
2023/09/29 10:46:24;;;;;;;0.03;0.03;;;19.80;99.90;;;;;;5018176;28;20037;-64
2023/09/29 10:48:55;;;;;;;0.00;0.00;;;19.80;99.90;;;;;;5017023;28;20072;-64
2023/09/29 10:51:21;;;;;;;0.13;0.13;;;19.90;99.90;;;;;;5026606;28;20047;-64
2023/09/29 10:53:48;;;;;;;1.98;1.23;;;19.90;99.90;;;;;;5022547;28;20047;-64
2023/09/29 10:56:21;;;;;;;1.17;1.08;;;19.90;99.90;;;;;;5023876;28;20061;-63
2023/09/29 10:58:48;;;;;;;0.50;0.50;;;20.00;99.90;;;;;;5025769;28;20373;-64
2023/09/29 11:01:25;;;;;;;0.40;0.40;;;19.90;99.90;;;;;;5029356;28;20053;-64
2023/09/29 11:03:51;;;;;;;0.57;0.57;;;19.80;99.90;;;;;;5024704;28;20061;-64
2023/09/29 11:06:18;;;;;;;0.00;0.00;;;19.50;99.90;;;;;;5018127;28;20048;-63
2023/09/29 11:08:54;;;;;;;0.00;0.00;;;19.30;99.90;;;;;;5031009;28;20400;-64
2023/09/29 11:11:20;;;;;;;0.00;0.00;;;19.10;99.90;;;;;;5022103;28;20054;-64
2023/09/29 11:13:58;;;;;;;0.00;0.00;;;19.00;99.90;;;;;;5026602;28;20120;-64
2023/09/29 11:16:27;;;;;;;0.05;0.05;;;18.90;99.90;;;;;;5015850;28;20112;-64
2023/09/29 11:18:56;;;;;;;0.00;0.00;;;18.80;99.90;;;;;;5023678;28;20045;-64
2023/09/29 11:21:35;;;;;;;0.00;0.00;;;18.80;99.90;;;;;;5018762;28;20096;-65
2023/09/29 11:24:13;;;;;;;1.08;0.65;;;18.80;99.90;;;;;;5023104;28;20049;-64
2023/09/29 11:26:43;;;;;;;0.00;0.00;;;18.70;99.90;;;;;;5022296;28;20037;-64
2023/09/29 11:29:23;;;;;;;0.00;0.00;;;18.60;99.90;;;;;;5018418;28;20423;-64
2023/09/29 11:31:53;;;;;;;0.00;0.00;;;18.60;99.90;;;;;;5022311;28;20077;-64
2023/09/29 11:34:19;;;;;;;0.00;0.00;;;18.60;99.90;;;;;;5018535;28;20132;-64
2023/09/29 11:36:44;;;;;;;1.17;0.45;;;18.50;99.90;;;;;;5020369;28;20145;-64
2023/09/29 11:39:16;;;;;;;0.28;0.28;;;18.40;99.90;;;;;;5024587;28;20084;-64
2023/09/29 11:41:42;;;;;;;0.00;0.00;;;18.40;99.90;;;;;;5018657;28;20072;-65
2023/09/29 11:44:08;;;;;;;1.10;0.45;;;18.30;99.90;;;;;;5018052;28;20076;-64
2023/09/29 11:46:33;;;;;;;0.05;0.05;;;18.20;99.90;;;;;;5014848;28;20037;-65
2023/09/29 11:48:59;;;;;;;0.00;0.00;;;18.10;99.90;;;;;;5022451;28;20060;-65
2023/09/29 11:51:24;;;;;;;0.00;0.00;;;18.10;99.90;;;;;;5026469;28;20044;-65
2023/09/29 11:53:50;;;;;;;1.75;1.55;;;18.00;99.90;;;;;;5021184;28;20041;-65
2023/09/29 11:56:16;;;;;;;0.00;0.00;;;17.90;99.90;;;;;;5019237;28;20139;-65
2023/09/29 11:58:41;;;;;;;0.00;0.00;;;17.80;99.90;;;;;;5018500;28;20049;-65
2023/09/29 12:01:08;;;;;;;0.00;0.00;;;17.70;99.90;;;;;;5018281;28;20387;-65
2023/09/29 12:03:35;;;;;;;0.00;0.00;;;17.60;99.90;;;;;;5022233;28;20048;-65
2023/09/29 12:06:02;;;;;;;0.00;0.00;;;17.70;99.90;;;;;;5022032;28;20042;-65
2023/09/29 12:08:29;;;;;;;0.30;0.30;;;17.70;99.90;;;;;;5017583;28;20045;-65
2023/09/29 12:10:55;;;;;;;0.00;0.00;;;17.70;99.90;;;;;;5026314;28;20041;-65
2023/09/29 12:13:20;;;;;;;1.17;0.75;;;17.70;99.90;;;;;;5029960;28;20100;-65
2023/09/29 12:15:46;;;;;;;0.00;0.00;;;17.70;99.90;;;;;;5026025;28;20457;-64
2023/09/29 12:18:13;;;;;;;0.00;0.00;;;17.70;99.90;;;;;;5018114;28;20088;-65
2023/09/29 12:20:39;;;;;;;0.00;0.00;;;17.60;99.90;;;;;;5018432;28;20049;-65
2023/09/29 12:23:06;;;;;;;0.00;0.00;;;17.70;99.90;;;;;;5020769;28;20095;-64
2023/09/29 12:25:32;;;;;;;0.00;0.00;;;17.70;99.90;;;;;;5031328;28;20049;-64
2023/09/29 12:27:58;;;;;;;0.03;0.03;;;17.80;99.90;;;;;;5026355;28;20048;-64
2023/09/29 12:30:24;;;;;;;0.00;0.00;;;17.80;99.90;;;;;;5026656;28;20038;-64
2023/09/29 12:32:50;;;;;;;0.00;0.00;;;17.90;99.90;;;;;;5013490;28;20114;-64
2023/09/29 12:35:16;;;;;;;1.38;0.55;;;18.00;99.90;;;;;;5023522;28;20049;-64
2023/09/29 12:37:43;;;;;;;0.10;0.10;;;17.90;99.90;;;;;;5028229;28;20088;-64
2023/09/29 12:40:11;;;;;;;0.00;0.00;;;17.90;99.90;;;;;;5024512;28;20041;-64
2023/09/29 12:42:50;;;;;;;0.08;0.08;;;17.80;99.90;;;;;;5028133;28;20083;-63
2023/09/29 12:45:21;;;;;;;0.00;0.00;;;17.70;99.90;;;;;;5017024;28;20041;-64